sensor_id;sensor_type;location;lat;lon;timestamp;P1;durP1;ratioP1;P2;durP2;ratioP2
20997;SDS011;10657;51.276;6.390;2024-02-26T00:00:30;2.13;;;0.60;;
20997;SDS011;10657;51.276;6.390;2024-02-26T00:02:58;1.42;;;0.50;;
20997;SDS011;10657;51.276;6.390;2024-02-26T00:05:24;2.60;;;0.85;;
20997;SDS011;10657;51.276;6.390;2024-02-26T00:07:51;6.38;;;1.23;;
20997;SDS011;10657;51.276;6.390;2024-02-26T00:10:18;1.70;;;0.70;;
20997;SDS011;10657;51.276;6.390;2024-02-26T00:12:45;1.92;;;0.30;;
20997;SDS011;10657;51.276;6.390;2024-02-26T00:15:12;1.65;;;0.50;;
20997;SDS011;10657;51.276;6.390;2024-02-26T00:17:38;1.55;;;0.70;;
20997;SDS011;10657;51.276;6.390;2024-02-26T00:20:06;1.92;;;0.73;;
20997;SDS011;10657;51.276;6.390;2024-02-26T00:22:36;3.65;;;1.02;;
20997;SDS011;10657;51.276;6.390;2024-02-26T00:25:03;1.92;;;0.85;;
20997;SDS011;10657;51.276;6.390;2024-02-26T00:27:30;2.60;;;0.90;;
20997;SDS011;10657;51.276;6.390;2024-02-26T00:29:57;1.83;;;0.55;;
20997;SDS011;10657;51.276;6.390;2024-02-26T00:32:24;0.85;;;0.40;;
20997;SDS011;10657;51.276;6.390;2024-02-26T00:34:50;0.45;;;0.35;;
20997;SDS011;10657;51.276;6.390;2024-02-26T00:37:18;0.88;;;0.38;;
20997;SDS011;10657;51.276;6.390;2024-02-26T00:39:45;1.27;;;0.60;;
20997;SDS011;10657;51.276;6.390;2024-02-26T00:42:12;1.08;;;0.50;;
20997;SDS011;10657;51.276;6.390;2024-02-26T00:44:39;0.80;;;0.40;;
20997;SDS011;10657;51.276;6.390;2024-02-26T00:47:06;1.30;;;0.50;;
20997;SDS011;10657;51.276;6.390;2024-02-26T00:49:32;1.83;;;0.70;;
20997;SDS011;10657;51.276;6.390;2024-02-26T00:51:59;1.08;;;0.57;;
20997;SDS011;10657;51.276;6.390;2024-02-26T00:54:26;1.30;;;0.40;;
20997;SDS011;10657;51.276;6.390;2024-02-26T00:56:52;2.38;;;0.70;;
20997;SDS011;10657;51.276;6.390;2024-02-26T00:59:19;1.67;;;0.77;;
20997;SDS011;10657;51.276;6.390;2024-02-26T01:01:46;1.05;;;0.45;;
20997;SDS011;10657;51.276;6.390;2024-02-26T01:04:12;2.03;;;0.60;;
20997;SDS011;10657;51.276;6.390;2024-02-26T01:06:39;0.77;;;0.43;;
20997;SDS011;10657;51.276;6.390;2024-02-26T01:09:06;3.17;;;0.98;;
20997;SDS011;10657;51.276;6.390;2024-02-26T01:11:34;1.30;;;0.63;;
20997;SDS011;10657;51.276;6.390;2024-02-26T01:14:02;2.25;;;0.47;;
20997;SDS011;10657;51.276;6.390;2024-02-26T01:16:29;1.73;;;0.60;;
20997;SDS011;10657;51.276;6.390;2024-02-26T01:18:58;0.93;;;0.43;;
20997;SDS011;10657;51.276;6.390;2024-02-26T01:21:24;1.80;;;0.68;;
20997;SDS011;10657;51.276;6.390;2024-02-26T01:23:53;1.55;;;0.50;;
20997;SDS011;10657;51.276;6.390;2024-02-26T01:26:19;0.85;;;0.40;;
20997;SDS011;10657;51.276;6.390;2024-02-26T01:28:48;1.02;;;0.40;;
20997;SDS011;10657;51.276;6.390;2024-02-26T01:31:14;2.50;;;0.85;;
20997;SDS011;10657;51.276;6.390;2024-02-26T01:33:41;1.27;;;0.50;;
20997;SDS011;10657;51.276;6.390;2024-02-26T01:36:08;2.05;;;0.68;;
20997;SDS011;10657;51.276;6.390;2024-02-26T01:38:35;0.88;;;0.40;;
20997;SDS011;10657;51.276;6.390;2024-02-26T01:41:01;0.90;;;0.40;;
20997;SDS011;10657;51.276;6.390;2024-02-26T01:43:28;1.55;;;0.60;;
20997;SDS011;10657;51.276;6.390;2024-02-26T01:45:55;0.93;;;0.40;;
20997;SDS011;10657;51.276;6.390;2024-02-26T01:48:21;1.00;;;0.50;;
20997;SDS011;10657;51.276;6.390;2024-02-26T01:50:48;1.20;;;0.60;;
20997;SDS011;10657;51.276;6.390;2024-02-26T01:53:16;1.10;;;0.50;;
20997;SDS011;10657;51.276;6.390;2024-02-26T01:55:43;1.15;;;0.65;;
20997;SDS011;10657;51.276;6.390;2024-02-26T01:58:10;2.70;;;1.00;;
20997;SDS011;10657;51.276;6.390;2024-02-26T02:00:37;2.33;;;0.80;;
20997;SDS011;10657;51.276;6.390;2024-02-26T02:03:05;1.10;;;0.40;;
20997;SDS011;10657;51.276;6.390;2024-02-26T02:05:32;1.08;;;0.43;;
20997;SDS011;10657;51.276;6.390;2024-02-26T02:08:00;1.50;;;0.50;;
20997;SDS011;10657;51.276;6.390;2024-02-26T02:10:27;1.23;;;0.60;;
20997;SDS011;10657;51.276;6.390;2024-02-26T02:12:54;1.02;;;0.50;;
20997;SDS011;10657;51.276;6.390;2024-02-26T02:15:21;0.77;;;0.40;;
20997;SDS011;10657;51.276;6.390;2024-02-26T02:17:48;0.68;;;0.40;;
20997;SDS011;10657;51.276;6.390;2024-02-26T02:20:15;1.30;;;0.43;;
20997;SDS011;10657;51.276;6.390;2024-02-26T02:22:44;1.13;;;0.40;;
20997;SDS011;10657;51.276;6.390;2024-02-26T02:25:11;1.52;;;0.50;;
20997;SDS011;10657;51.276;6.390;2024-02-26T02:27:39;0.60;;;0.40;;
20997;SDS011;10657;51.276;6.390;2024-02-26T02:30:07;1.60;;;0.57;;
20997;SDS011;10657;51.276;6.390;2024-02-26T02:32:35;1.73;;;0.60;;
20997;SDS011;10657;51.276;6.390;2024-02-26T02:35:04;0.80;;;0.40;;
20997;SDS011;10657;51.276;6.390;2024-02-26T02:37:31;0.80;;;0.40;;
20997;SDS011;10657;51.276;6.390;2024-02-26T02:39:57;2.08;;;0.60;;
20997;SDS011;10657;51.276;6.390;2024-02-26T02:42:24;0.90;;;0.40;;
20997;SDS011;10657;51.276;6.390;2024-02-26T02:44:51;2.28;;;0.60;;
20997;SDS011;10657;51.276;6.390;2024-02-26T02:47:18;1.40;;;0.50;;
20997;SDS011;10657;51.276;6.390;2024-02-26T02:49:44;1.30;;;0.47;;
20997;SDS011;10657;51.276;6.390;2024-02-26T02:52:11;0.65;;;0.40;;
20997;SDS011;10657;51.276;6.390;2024-02-26T02:54:38;1.48;;;0.45;;
20997;SDS011;10657;51.276;6.390;2024-02-26T02:57:08;1.98;;;0.75;;
20997;SDS011;10657;51.276;6.390;2024-02-26T02:59:35;1.42;;;0.57;;
20997;SDS011;10657;51.276;6.390;2024-02-26T03:02:03;1.17;;;0.50;;
20997;SDS011;10657;51.276;6.390;2024-02-26T03:04:30;1.48;;;0.60;;
20997;SDS011;10657;51.276;6.390;2024-02-26T03:06:58;1.20;;;0.50;;
20997;SDS011;10657;51.276;6.390;2024-02-26T03:09:24;1.63;;;0.50;;
20997;SDS011;10657;51.276;6.390;2024-02-26T03:11:51;1.85;;;0.57;;
20997;SDS011;10657;51.276;6.390;2024-02-26T03:14:18;1.25;;;0.60;;
20997;SDS011;10657;51.276;6.390;2024-02-26T03:16:45;0.70;;;0.40;;
20997;SDS011;10657;51.276;6.390;2024-02-26T03:19:14;0.70;;;0.30;;
20997;SDS011;10657;51.276;6.390;2024-02-26T03:21:42;0.43;;;0.28;;
20997;SDS011;10657;51.276;6.390;2024-02-26T03:24:09;1.58;;;0.60;;
20997;SDS011;10657;51.276;6.390;2024-02-26T03:26:36;1.75;;;0.50;;
20997;SDS011;10657;51.276;6.390;2024-02-26T03:29:03;0.95;;;0.40;;
20997;SDS011;10657;51.276;6.390;2024-02-26T03:31:31;1.42;;;0.50;;
20997;SDS011;10657;51.276;6.390;2024-02-26T03:33:57;1.17;;;0.47;;
20997;SDS011;10657;51.276;6.390;2024-02-26T03:36:25;1.15;;;0.50;;
20997;SDS011;10657;51.276;6.390;2024-02-26T03:38:51;0.98;;;0.50;;
20997;SDS011;10657;51.276;6.390;2024-02-26T03:41:18;1.13;;;0.50;;
20997;SDS011;10657;51.276;6.390;2024-02-26T03:43:45;0.93;;;0.40;;
20997;SDS011;10657;51.276;6.390;2024-02-26T03:46:12;1.30;;;0.55;;
20997;SDS011;10657;51.276;6.390;2024-02-26T03:48:43;1.00;;;0.40;;
20997;SDS011;10657;51.276;6.390;2024-02-26T03:51:09;1.08;;;0.50;;
20997;SDS011;10657;51.276;6.390;2024-02-26T03:53:36;0.75;;;0.40;;
20997;SDS011;10657;51.276;6.390;2024-02-26T03:56:04;1.38;;;0.47;;
20997;SDS011;10657;51.276;6.390;2024-02-26T03:58:31;1.35;;;0.50;;
20997;SDS011;10657;51.276;6.390;2024-02-26T04:00:59;0.95;;;0.38;;
20997;SDS011;10657;51.276;6.390;2024-02-26T04:03:26;2.50;;;0.60;;
20997;SDS011;10657;51.276;6.390;2024-02-26T04:05:53;1.80;;;0.60;;
20997;SDS011;10657;51.276;6.390;2024-02-26T04:08:19;1.23;;;0.38;;
20997;SDS011;10657;51.276;6.390;2024-02-26T04:10:46;0.30;;;0.17;;
20997;SDS011;10657;51.276;6.390;2024-02-26T04:13:13;1.15;;;0.52;;
20997;SDS011;10657;51.276;6.390;2024-02-26T04:15:40;1.08;;;0.47;;
20997;SDS011;10657;51.276;6.390;2024-02-26T04:18:07;1.08;;;0.40;;
20997;SDS011;10657;51.276;6.390;2024-02-26T04:20:34;0.88;;;0.50;;
20997;SDS011;10657;51.276;6.390;2024-02-26T04:23:02;1.20;;;0.60;;
20997;SDS011;10657;51.276;6.390;2024-02-26T04:25:29;1.23;;;0.47;;
20997;SDS011;10657;51.276;6.390;2024-02-26T04:27:56;1.25;;;0.50;;
20997;SDS011;10657;51.276;6.390;2024-02-26T04:30:23;1.27;;;0.57;;
20997;SDS011;10657;51.276;6.390;2024-02-26T04:32:50;1.60;;;0.60;;
20997;SDS011;10657;51.276;6.390;2024-02-26T04:35:16;0.75;;;0.28;;
20997;SDS011;10657;51.276;6.390;2024-02-26T04:37:43;0.77;;;0.38;;
20997;SDS011;10657;51.276;6.390;2024-02-26T04:40:10;1.63;;;0.40;;
20997;SDS011;10657;51.276;6.390;2024-02-26T04:42:37;1.58;;;0.52;;
20997;SDS011;10657;51.276;6.390;2024-02-26T04:45:04;1.30;;;0.50;;
20997;SDS011;10657;51.276;6.390;2024-02-26T04:47:31;2.95;;;0.85;;
20997;SDS011;10657;51.276;6.390;2024-02-26T04:49:57;1.25;;;0.55;;
20997;SDS011;10657;51.276;6.390;2024-02-26T04:52:25;1.23;;;0.50;;
20997;SDS011;10657;51.276;6.390;2024-02-26T04:54:51;1.05;;;0.40;;
20997;SDS011;10657;51.276;6.390;2024-02-26T04:57:18;1.33;;;0.55;;
20997;SDS011;10657;51.276;6.390;2024-02-26T04:59:45;1.50;;;0.60;;
20997;SDS011;10657;51.276;6.390;2024-02-26T05:02:13;1.27;;;0.50;;
20997;SDS011;10657;51.276;6.390;2024-02-26T05:04:40;1.23;;;0.50;;
20997;SDS011;10657;51.276;6.390;2024-02-26T05:07:07;2.50;;;0.80;;
20997;SDS011;10657;51.276;6.390;2024-02-26T05:09:34;1.08;;;0.50;;
20997;SDS011;10657;51.276;6.390;2024-02-26T05:12:01;1.35;;;0.55;;
20997;SDS011;10657;51.276;6.390;2024-02-26T05:14:28;1.92;;;0.80;;
20997;SDS011;10657;51.276;6.390;2024-02-26T05:16:54;1.50;;;0.60;;
20997;SDS011;10657;51.276;6.390;2024-02-26T05:19:22;2.33;;;0.70;;
20997;SDS011;10657;51.276;6.390;2024-02-26T05:21:49;0.68;;;0.30;;
20997;SDS011;10657;51.276;6.390;2024-02-26T05:24:16;1.80;;;0.40;;
20997;SDS011;10657;51.276;6.390;2024-02-26T05:26:44;1.52;;;0.40;;
20997;SDS011;10657;51.276;6.390;2024-02-26T05:29:11;0.10;;;0.10;;
20997;SDS011;10657;51.276;6.390;2024-02-26T05:31:38;2.25;;;0.70;;
20997;SDS011;10657;51.276;6.390;2024-02-26T05:34:08;1.67;;;0.55;;
20997;SDS011;10657;51.276;6.390;2024-02-26T05:36:34;1.08;;;0.50;;
20997;SDS011;10657;51.276;6.390;2024-02-26T05:39:01;0.98;;;0.45;;
20997;SDS011;10657;51.276;6.390;2024-02-26T05:41:30;0.57;;;0.38;;
20997;SDS011;10657;51.276;6.390;2024-02-26T05:43:56;0.65;;;0.45;;
20997;SDS011;10657;51.276;6.390;2024-02-26T05:46:24;2.17;;;0.88;;
20997;SDS011;10657;51.276;6.390;2024-02-26T05:48:51;2.28;;;0.80;;
20997;SDS011;10657;51.276;6.390;2024-02-26T05:51:19;2.15;;;0.68;;
20997;SDS011;10657;51.276;6.390;2024-02-26T05:53:46;1.67;;;0.50;;
20997;SDS011;10657;51.276;6.390;2024-02-26T05:56:14;1.63;;;0.70;;
20997;SDS011;10657;51.276;6.390;2024-02-26T05:58:40;1.15;;;0.50;;
20997;SDS011;10657;51.276;6.390;2024-02-26T06:01:07;1.35;;;0.50;;
20997;SDS011;10657;51.276;6.390;2024-02-26T06:03:34;3.95;;;1.40;;
20997;SDS011;10657;51.276;6.390;2024-02-26T06:06:01;4.10;;;1.02;;
20997;SDS011;10657;51.276;6.390;2024-02-26T06:08:28;1.77;;;0.75;;
20997;SDS011;10657;51.276;6.390;2024-02-26T06:10:54;2.05;;;0.60;;
20997;SDS011;10657;51.276;6.390;2024-02-26T06:13:21;1.08;;;0.55;;
20997;SDS011;10657;51.276;6.390;2024-02-26T06:15:48;1.70;;;0.70;;
20997;SDS011;10657;51.276;6.390;2024-02-26T06:18:15;1.20;;;0.60;;
20997;SDS011;10657;51.276;6.390;2024-02-26T06:20:42;1.98;;;0.70;;
20997;SDS011;10657;51.276;6.390;2024-02-26T06:23:09;1.88;;;0.70;;
20997;SDS011;10657;51.276;6.390;2024-02-26T06:25:36;2.03;;;0.80;;
20997;SDS011;10657;51.276;6.390;2024-02-26T06:28:02;5.05;;;0.77;;
20997;SDS011;10657;51.276;6.390;2024-02-26T06:30:29;1.30;;;0.55;;
20997;SDS011;10657;51.276;6.390;2024-02-26T06:32:56;3.13;;;0.85;;
20997;SDS011;10657;51.276;6.390;2024-02-26T06:35:23;1.83;;;0.65;;
20997;SDS011;10657;51.276;6.390;2024-02-26T06:37:50;1.88;;;0.80;;
20997;SDS011;10657;51.276;6.390;2024-02-26T06:40:19;2.15;;;0.88;;
20997;SDS011;10657;51.276;6.390;2024-02-26T06:42:45;1.77;;;0.70;;
20997;SDS011;10657;51.276;6.390;2024-02-26T06:45:15;1.45;;;0.57;;
20997;SDS011;10657;51.276;6.390;2024-02-26T06:47:42;1.92;;;0.60;;
20997;SDS011;10657;51.276;6.390;2024-02-26T06:50:11;1.30;;;0.50;;
20997;SDS011;10657;51.276;6.390;2024-02-26T06:52:38;1.63;;;0.70;;
20997;SDS011;10657;51.276;6.390;2024-02-26T06:55:05;2.03;;;0.73;;
20997;SDS011;10657;51.276;6.390;2024-02-26T06:57:34;2.00;;;0.65;;
20997;SDS011;10657;51.276;6.390;2024-02-26T07:00:01;2.22;;;0.68;;
20997;SDS011;10657;51.276;6.390;2024-02-26T07:02:30;1.67;;;0.55;;
20997;SDS011;10657;51.276;6.390;2024-02-26T07:04:57;1.95;;;0.77;;
20997;SDS011;10657;51.276;6.390;2024-02-26T07:07:24;1.02;;;0.38;;
20997;SDS011;10657;51.276;6.390;2024-02-26T07:09:52;1.67;;;0.70;;
20997;SDS011;10657;51.276;6.390;2024-02-26T07:12:18;1.90;;;0.73;;
20997;SDS011;10657;51.276;6.390;2024-02-26T07:14:47;0.90;;;0.52;;
20997;SDS011;10657;51.276;6.390;2024-02-26T07:17:15;1.25;;;0.40;;
20997;SDS011;10657;51.276;6.390;2024-02-26T07:19:42;1.60;;;0.70;;
20997;SDS011;10657;51.276;6.390;2024-02-26T07:22:09;1.98;;;0.82;;
20997;SDS011;10657;51.276;6.390;2024-02-26T07:24:36;1.02;;;0.50;;
20997;SDS011;10657;51.276;6.390;2024-02-26T07:27:03;3.25;;;1.02;;
20997;SDS011;10657;51.276;6.390;2024-02-26T07:29:29;1.13;;;0.50;;
20997;SDS011;10657;51.276;6.390;2024-02-26T07:31:56;1.48;;;0.60;;
20997;SDS011;10657;51.276;6.390;2024-02-26T07:34:24;2.08;;;0.70;;
20997;SDS011;10657;51.276;6.390;2024-02-26T07:36:55;3.95;;;1.27;;
20997;SDS011;10657;51.276;6.390;2024-02-26T07:39:22;3.00;;;0.90;;
20997;SDS011;10657;51.276;6.390;2024-02-26T07:41:49;1.10;;;0.50;;
20997;SDS011;10657;51.276;6.390;2024-02-26T07:44:18;1.55;;;0.70;;
20997;SDS011;10657;51.276;6.390;2024-02-26T07:46:46;0.73;;;0.40;;
20997;SDS011;10657;51.276;6.390;2024-02-26T07:49:13;1.83;;;0.65;;
20997;SDS011;10657;51.276;6.390;2024-02-26T07:51:40;2.22;;;0.80;;
20997;SDS011;10657;51.276;6.390;2024-02-26T07:54:07;1.73;;;0.60;;
20997;SDS011;10657;51.276;6.390;2024-02-26T07:56:34;2.00;;;0.65;;
20997;SDS011;10657;51.276;6.390;2024-02-26T07:59:00;1.15;;;0.50;;
20997;SDS011;10657;51.276;6.390;2024-02-26T08:01:27;1.88;;;0.60;;
20997;SDS011;10657;51.276;6.390;2024-02-26T08:03:54;1.70;;;0.70;;
20997;SDS011;10657;51.276;6.390;2024-02-26T08:06:22;2.70;;;0.80;;
20997;SDS011;10657;51.276;6.390;2024-02-26T08:08:49;2.33;;;0.80;;
20997;SDS011;10657;51.276;6.390;2024-02-26T08:11:16;1.13;;;0.50;;
20997;SDS011;10657;51.276;6.390;2024-02-26T08:13:43;2.55;;;0.80;;
20997;SDS011;10657;51.276;6.390;2024-02-26T08:16:10;2.40;;;0.82;;
20997;SDS011;10657;51.276;6.390;2024-02-26T08:18:38;2.08;;;0.60;;
20997;SDS011;10657;51.276;6.390;2024-02-26T08:21:05;2.90;;;0.70;;
20997;SDS011;10657;51.276;6.390;2024-02-26T08:23:31;1.60;;;0.60;;
20997;SDS011;10657;51.276;6.390;2024-02-26T08:25:58;2.33;;;0.60;;
20997;SDS011;10657;51.276;6.390;2024-02-26T08:28:25;1.63;;;0.60;;
20997;SDS011;10657;51.276;6.390;2024-02-26T08:30:51;1.85;;;0.63;;
20997;SDS011;10657;51.276;6.390;2024-02-26T08:33:18;2.35;;;0.75;;
20997;SDS011;10657;51.276;6.390;2024-02-26T08:35:45;1.88;;;0.60;;
20997;SDS011;10657;51.276;6.390;2024-02-26T08:38:12;1.27;;;0.45;;
20997;SDS011;10657;51.276;6.390;2024-02-26T08:40:39;1.30;;;0.68;;
20997;SDS011;10657;51.276;6.390;2024-02-26T08:43:05;1.35;;;0.55;;
20997;SDS011;10657;51.276;6.390;2024-02-26T08:45:32;1.00;;;0.50;;
20997;SDS011;10657;51.276;6.390;2024-02-26T08:47:59;1.63;;;0.60;;
20997;SDS011;10657;51.276;6.390;2024-02-26T08:50:26;2.35;;;0.73;;
20997;SDS011;10657;51.276;6.390;2024-02-26T08:52:53;1.67;;;0.70;;
20997;SDS011;10657;51.276;6.390;2024-02-26T08:55:19;3.10;;;1.10;;
20997;SDS011;10657;51.276;6.390;2024-02-26T08:57:47;2.10;;;0.70;;
20997;SDS011;10657;51.276;6.390;2024-02-26T09:00:14;1.83;;;0.68;;
20997;SDS011;10657;51.276;6.390;2024-02-26T09:02:42;1.73;;;0.55;;
20997;SDS011;10657;51.276;6.390;2024-02-26T09:05:10;2.40;;;0.75;;
20997;SDS011;10657;51.276;6.390;2024-02-26T09:07:36;0.93;;;0.50;;
20997;SDS011;10657;51.276;6.390;2024-02-26T09:10:04;1.30;;;0.63;;
20997;SDS011;10657;51.276;6.390;2024-02-26T09:12:31;2.88;;;1.00;;
20997;SDS011;10657;51.276;6.390;2024-02-26T09:14:58;1.33;;;0.70;;
20997;SDS011;10657;51.276;6.390;2024-02-26T09:17:25;2.10;;;0.70;;
20997;SDS011;10657;51.276;6.390;2024-02-26T09:19:52;0.52;;;0.32;;
20997;SDS011;10657;51.276;6.390;2024-02-26T09:22:18;2.05;;;0.80;;
20997;SDS011;10657;51.276;6.390;2024-02-26T09:24:45;1.98;;;0.70;;
20997;SDS011;10657;51.276;6.390;2024-02-26T09:27:12;1.65;;;0.55;;
20997;SDS011;10657;51.276;6.390;2024-02-26T09:29:38;2.15;;;0.70;;
20997;SDS011;10657;51.276;6.390;2024-02-26T09:32:05;2.70;;;0.70;;
20997;SDS011;10657;51.276;6.390;2024-02-26T09:34:32;1.23;;;0.50;;
20997;SDS011;10657;51.276;6.390;2024-02-26T09:37:00;1.38;;;0.50;;
20997;SDS011;10657;51.276;6.390;2024-02-26T09:39:40;2.17;;;0.68;;
20997;SDS011;10657;51.276;6.390;2024-02-26T09:42:07;1.92;;;0.70;;
20997;SDS011;10657;51.276;6.390;2024-02-26T09:44:39;2.55;;;0.93;;
20997;SDS011;10657;51.276;6.390;2024-02-26T09:47:09;1.88;;;0.60;;
20997;SDS011;10657;51.276;6.390;2024-02-26T09:49:37;2.08;;;0.73;;
20997;SDS011;10657;51.276;6.390;2024-02-26T09:52:05;1.77;;;0.60;;
20997;SDS011;10657;51.276;6.390;2024-02-26T09:54:34;1.77;;;0.60;;
20997;SDS011;10657;51.276;6.390;2024-02-26T09:57:02;2.00;;;0.70;;
20997;SDS011;10657;51.276;6.390;2024-02-26T09:59:36;2.05;;;0.70;;
20997;SDS011;10657;51.276;6.390;2024-02-26T10:02:11;1.45;;;0.60;;
20997;SDS011;10657;51.276;6.390;2024-02-26T10:04:39;2.05;;;0.70;;
20997;SDS011;10657;51.276;6.390;2024-02-26T10:07:11;2.60;;;0.70;;
20997;SDS011;10657;51.276;6.390;2024-02-26T10:09:39;2.72;;;0.85;;
20997;SDS011;10657;51.276;6.390;2024-02-26T10:12:07;2.05;;;0.60;;
20997;SDS011;10657;51.276;6.390;2024-02-26T10:14:37;1.20;;;0.50;;
20997;SDS011;10657;51.276;6.390;2024-02-26T10:17:06;2.20;;;0.70;;
20997;SDS011;10657;51.276;6.390;2024-02-26T10:19:34;1.40;;;0.57;;
20997;SDS011;10657;51.276;6.390;2024-02-26T10:22:04;0.88;;;0.35;;
20997;SDS011;10657;51.276;6.390;2024-02-26T10:24:31;1.85;;;0.60;;
20997;SDS011;10657;51.276;6.390;2024-02-26T10:27:00;1.67;;;0.60;;
20997;SDS011;10657;51.276;6.390;2024-02-26T10:29:28;2.22;;;0.80;;
20997;SDS011;10657;51.276;6.390;2024-02-26T10:31:55;0.75;;;0.47;;
20997;SDS011;10657;51.276;6.390;2024-02-26T10:34:22;1.27;;;0.50;;
20997;SDS011;10657;51.276;6.390;2024-02-26T10:36:49;2.42;;;0.70;;
20997;SDS011;10657;51.276;6.390;2024-02-26T10:39:20;1.85;;;0.70;;
20997;SDS011;10657;51.276;6.390;2024-02-26T10:41:47;0.98;;;0.47;;
20997;SDS011;10657;51.276;6.390;2024-02-26T10:44:14;1.88;;;0.63;;
20997;SDS011;10657;51.276;6.390;2024-02-26T10:46:44;4.38;;;1.10;;
20997;SDS011;10657;51.276;6.390;2024-02-26T10:49:14;1.73;;;0.60;;
20997;SDS011;10657;51.276;6.390;2024-02-26T10:51:45;1.48;;;0.60;;
20997;SDS011;10657;51.276;6.390;2024-02-26T10:54:15;2.50;;;0.80;;
20997;SDS011;10657;51.276;6.390;2024-02-26T10:56:42;1.60;;;0.50;;
20997;SDS011;10657;51.276;6.390;2024-02-26T10:59:11;1.88;;;0.70;;
20997;SDS011;10657;51.276;6.390;2024-02-26T11:01:38;2.17;;;0.60;;
20997;SDS011;10657;51.276;6.390;2024-02-26T11:04:08;1.33;;;0.70;;
20997;SDS011;10657;51.276;6.390;2024-02-26T11:06:36;1.35;;;0.32;;
20997;SDS011;10657;51.276;6.390;2024-02-26T11:09:04;1.42;;;0.45;;
20997;SDS011;10657;51.276;6.390;2024-02-26T11:11:32;2.30;;;0.88;;
20997;SDS011;10657;51.276;6.390;2024-02-26T11:14:01;0.13;;;0.13;;
20997;SDS011;10657;51.276;6.390;2024-02-26T11:16:30;2.90;;;1.23;;
20997;SDS011;10657;51.276;6.390;2024-02-26T11:18:58;0.88;;;0.30;;
20997;SDS011;10657;51.276;6.390;2024-02-26T11:21:26;1.65;;;0.60;;
20997;SDS011;10657;51.276;6.390;2024-02-26T11:23:57;1.42;;;0.50;;
20997;SDS011;10657;51.276;6.390;2024-02-26T11:26:24;2.08;;;0.50;;
20997;SDS011;10657;51.276;6.390;2024-02-26T11:28:52;0.82;;;0.30;;
20997;SDS011;10657;51.276;6.390;2024-02-26T11:31:20;3.47;;;1.00;;
20997;SDS011;10657;51.276;6.390;2024-02-26T11:33:53;2.85;;;0.80;;
20997;SDS011;10657;51.276;6.390;2024-02-26T11:36:23;2.50;;;0.95;;
20997;SDS011;10657;51.276;6.390;2024-02-26T11:38:50;3.17;;;0.90;;
20997;SDS011;10657;51.276;6.390;2024-02-26T11:41:18;7.82;;;1.10;;
20997;SDS011;10657;51.276;6.390;2024-02-26T11:43:52;3.70;;;1.20;;
20997;SDS011;10657;51.276;6.390;2024-02-26T11:48:56;2.63;;;0.70;;
20997;SDS011;10657;51.276;6.390;2024-02-26T11:51:32;2.72;;;0.93;;
20997;SDS011;10657;51.276;6.390;2024-02-26T11:54:01;0.98;;;0.40;;
20997;SDS011;10657;51.276;6.390;2024-02-26T11:56:27;2.38;;;0.75;;
20997;SDS011;10657;51.276;6.390;2024-02-26T11:58:58;1.95;;;0.88;;
20997;SDS011;10657;51.276;6.390;2024-02-26T12:01:48;3.10;;;1.20;;
20997;SDS011;10657;51.276;6.390;2024-02-26T12:07:18;4.90;;;1.25;;
20997;SDS011;10657;51.276;6.390;2024-02-26T12:09:41;2.88;;;1.05;;
20997;SDS011;10657;51.276;6.390;2024-02-26T12:12:10;8.25;;;1.48;;
20997;SDS011;10657;51.276;6.390;2024-02-26T12:14:40;1.80;;;0.70;;
20997;SDS011;10657;51.276;6.390;2024-02-26T12:17:21;1.85;;;0.68;;
20997;SDS011;10657;51.276;6.390;2024-02-26T12:19:49;3.38;;;0.98;;
20997;SDS011;10657;51.276;6.390;2024-02-26T12:22:18;4.05;;;1.17;;
20997;SDS011;10657;51.276;6.390;2024-02-26T12:24:45;4.88;;;0.73;;
20997;SDS011;10657;51.276;6.390;2024-02-26T12:27:12;1.13;;;0.63;;
20997;SDS011;10657;51.276;6.390;2024-02-26T12:29:39;7.38;;;1.40;;
20997;SDS011;10657;51.276;6.390;2024-02-26T12:32:06;3.33;;;1.10;;
20997;SDS011;10657;51.276;6.390;2024-02-26T12:34:33;3.78;;;1.05;;
20997;SDS011;10657;51.276;6.390;2024-02-26T12:37:00;3.63;;;1.10;;
20997;SDS011;10657;51.276;6.390;2024-02-26T12:39:28;3.58;;;1.35;;
20997;SDS011;10657;51.276;6.390;2024-02-26T12:41:55;7.00;;;1.10;;
20997;SDS011;10657;51.276;6.390;2024-02-26T12:44:25;6.95;;;1.58;;
20997;SDS011;10657;51.276;6.390;2024-02-26T12:46:59;2.42;;;0.98;;
20997;SDS011;10657;51.276;6.390;2024-02-26T12:49:29;5.97;;;2.00;;
20997;SDS011;10657;51.276;6.390;2024-02-26T12:51:55;4.55;;;1.63;;
20997;SDS011;10657;51.276;6.390;2024-02-26T12:54:28;4.40;;;1.38;;
20997;SDS011;10657;51.276;6.390;2024-02-26T12:57:00;3.03;;;1.27;;
20997;SDS011;10657;51.276;6.390;2024-02-26T12:59:28;5.00;;;2.00;;
20997;SDS011;10657;51.276;6.390;2024-02-26T13:01:56;6.35;;;2.65;;
20997;SDS011;10657;51.276;6.390;2024-02-26T13:04:23;4.57;;;1.45;;
20997;SDS011;10657;51.276;6.390;2024-02-26T13:06:51;7.93;;;2.20;;
20997;SDS011;10657;51.276;6.390;2024-02-26T13:09:18;4.97;;;1.20;;
20997;SDS011;10657;51.276;6.390;2024-02-26T13:11:45;4.55;;;1.92;;
20997;SDS011;10657;51.276;6.390;2024-02-26T13:14:20;3.58;;;1.23;;
20997;SDS011;10657;51.276;6.390;2024-02-26T13:17:05;3.08;;;1.02;;
20997;SDS011;10657;51.276;6.390;2024-02-26T13:19:32;4.57;;;1.70;;
20997;SDS011;10657;51.276;6.390;2024-02-26T13:22:06;3.63;;;1.23;;
20997;SDS011;10657;51.276;6.390;2024-02-26T13:24:34;1.85;;;0.50;;
20997;SDS011;10657;51.276;6.390;2024-02-26T13:27:01;3.03;;;1.13;;
20997;SDS011;10657;51.276;6.390;2024-02-26T13:29:31;4.38;;;1.45;;
20997;SDS011;10657;51.276;6.390;2024-02-26T13:31:58;3.85;;;1.40;;
20997;SDS011;10657;51.276;6.390;2024-02-26T13:34:28;2.40;;;0.95;;
20997;SDS011;10657;51.276;6.390;2024-02-26T13:36:57;4.38;;;1.42;;
20997;SDS011;10657;51.276;6.390;2024-02-26T13:39:24;4.22;;;1.65;;
20997;SDS011;10657;51.276;6.390;2024-02-26T13:41:51;4.47;;;1.60;;
20997;SDS011;10657;51.276;6.390;2024-02-26T13:44:19;3.92;;;1.50;;
20997;SDS011;10657;51.276;6.390;2024-02-26T13:46:47;3.70;;;1.17;;
20997;SDS011;10657;51.276;6.390;2024-02-26T13:49:15;3.97;;;1.40;;
20997;SDS011;10657;51.276;6.390;2024-02-26T13:51:42;6.00;;;2.17;;
20997;SDS011;10657;51.276;6.390;2024-02-26T13:54:09;5.28;;;1.40;;
20997;SDS011;10657;51.276;6.390;2024-02-26T13:56:37;4.45;;;1.38;;
20997;SDS011;10657;51.276;6.390;2024-02-26T13:59:04;6.75;;;2.97;;
20997;SDS011;10657;51.276;6.390;2024-02-26T14:01:31;7.30;;;3.00;;
20997;SDS011;10657;51.276;6.390;2024-02-26T14:03:59;3.20;;;1.17;;
20997;SDS011;10657;51.276;6.390;2024-02-26T14:06:29;4.82;;;1.30;;
20997;SDS011;10657;51.276;6.390;2024-02-26T14:08:57;5.57;;;1.83;;
20997;SDS011;10657;51.276;6.390;2024-02-26T14:11:24;4.93;;;1.48;;
20997;SDS011;10657;51.276;6.390;2024-02-26T14:13:51;8.50;;;3.65;;
20997;SDS011;10657;51.276;6.390;2024-02-26T14:16:18;5.10;;;1.75;;
20997;SDS011;10657;51.276;6.390;2024-02-26T14:18:46;5.45;;;1.70;;
20997;SDS011;10657;51.276;6.390;2024-02-26T14:21:13;6.50;;;1.70;;
20997;SDS011;10657;51.276;6.390;2024-02-26T14:23:40;4.68;;;1.45;;
20997;SDS011;10657;51.276;6.390;2024-02-26T14:26:08;4.60;;;1.60;;
20997;SDS011;10657;51.276;6.390;2024-02-26T14:28:35;5.03;;;1.70;;
20997;SDS011;10657;51.276;6.390;2024-02-26T14:31:03;4.93;;;1.65;;
20997;SDS011;10657;51.276;6.390;2024-02-26T14:33:32;3.72;;;1.13;;
20997;SDS011;10657;51.276;6.390;2024-02-26T14:35:58;5.75;;;1.40;;
20997;SDS011;10657;51.276;6.390;2024-02-26T14:38:25;4.30;;;1.50;;
20997;SDS011;10657;51.276;6.390;2024-02-26T14:40:52;4.80;;;1.58;;
20997;SDS011;10657;51.276;6.390;2024-02-26T14:43:19;4.20;;;1.20;;
20997;SDS011;10657;51.276;6.390;2024-02-26T14:45:45;8.48;;;2.25;;
20997;SDS011;10657;51.276;6.390;2024-02-26T14:48:12;3.47;;;1.27;;
20997;SDS011;10657;51.276;6.390;2024-02-26T14:50:39;2.22;;;0.90;;
20997;SDS011;10657;51.276;6.390;2024-02-26T14:53:06;5.85;;;1.23;;
20997;SDS011;10657;51.276;6.390;2024-02-26T14:55:33;4.65;;;1.55;;